< Typhoon 198912 1989 Season Typhoon 198914 >
Typhoon 198913 (MAC)
General InformationTrack Information on Google MapsDetailed Wind InformationList of All Images || NewsDisaster Info.ResourceGoogle EarthGE AnimationAtom FeedGeoJSON
Detalied Best Track (Time Zone = UTC)
Year Month Day Hour Lat. Long. Pressure (hPa) Wind (kt) Class Image Chart
1989 7 30 06 21.5 153.0 1004 0 2 Image Chart
1989 7 30 12 21.0 152.5 1004 0 2 Image Chart
1989 7 30 18 20.0 151.5 1002 0 2 Image Chart
1989 7 31 00 20.0 151.0 1000 0 2 Image Chart
1989 7 31 06 19.5 151.5 996 40 3 Image Chart
1989 7 31 12 20.2 151.5 994 40 3 Image Chart
1989 7 31 18 21.0 151.2 992 45 3 Image Chart
1989 8 1 00 21.5 151.2 992 45 3 Image Chart
1989 8 1 06 22.2 151.2 990 45 3 Image Chart
1989 8 1 12 23.2 151.0 985 50 4 Image Chart
1989 8 1 18 23.8 150.6 980 55 4 Image Chart
1989 8 2 00 24.3 150.0 980 55 4 Image Chart
1989 8 2 06 25.0 149.7 975 60 4 Image Chart
1989 8 2 12 25.8 149.5 975 60 4 Image Chart
1989 8 2 18 26.7 148.5 975 60 4 Image Chart
1989 8 3 00 27.0 147.2 970 60 4 Image Chart
1989 8 3 06 27.0 146.2 965 70 5 Image Chart
1989 8 3 12 26.8 145.5 955 75 5 Image Chart
1989 8 3 18 26.5 145.1 955 75 5 Image Chart
1989 8 4 00 26.4 144.9 955 75 5 Image Chart
1989 8 4 06 26.4 144.5 950 80 5 Image Chart
1989 8 4 12 26.5 144.4 950 80 5 Image Chart
1989 8 4 18 27.0 144.3 950 80 5 Image Chart
1989 8 5 00 27.8 144.2 950 80 5 Image Chart
1989 8 5 06 29.2 143.9 950 80 5 Image Chart
1989 8 5 12 30.7 143.6 955 75 5 Image Chart
1989 8 5 18 32.6 142.9 960 75 5 Image Chart
1989 8 6 00 34.3 142.0 965 70 5 Image Chart
1989 8 6 06 35.7 140.8 970 60 4 Image Chart
1989 8 6 12 37.6 139.6 980 50 4 Image Chart
1989 8 6 18 39.3 138.7 985 50 4 Image Chart
1989 8 7 00 40.7 138.0 990 45 3 Image Chart
1989 8 7 06 41.5 137.5 992 40 3 Image Chart
1989 8 7 12 42.3 137.0 994 35 3 Image Chart
1989 8 7 18 43.5 137.0 996 0 2 Image Chart
1989 8 8 00 45.0 138.0 996 0 2 Image Chart
1989 8 8 06 46.0 139.5 996 0 2 Image Chart
1989 8 8 12 47.0 141.0 996 0 2 Image Chart
1989 8 8 15 48.0 142.0 994 0 6 Image Chart
1989 8 8 18 49.0 144.0 994 0 6 Image Chart
1989 8 9 00 50.0 145.5 994 0 6 Image Chart
1989 8 9 06 51.0 149.0 994 0 6 Image Chart
1989 8 9 12 52.0 153.5 990 0 6 Image Chart
1989 8 9 18 52.5 157.5 990 0 6 Image Chart
1989 8 10 00 53.0 163.0 986 0 6 Image Chart
1989 8 10 06 54.0 166.0 986 0 6 Image Chart
1989 8 10 12 54.0 169.0 992 0 6 Image Chart
1989 8 10 18 55.0 176.0 990 0 6 Image Chart
1989 8 11 00 55.0 182.0 992 0 6 Image Chart
Japan Meteorological Agency Best Track Data | Correction Date : 1992-10-21
< Typhoon 198912 1989 Season Typhoon 198914 >

Help